Latest Weather Observations for Deniliquin

IDN60801

Issued at 10:02 pm EST Friday 28 April 2017 (issued every 30 minutes, with the page automatically refreshed every 10 minutes)

About weather observations | Map of weather stations | Latest weather observations for NSW | Other Formats
Station Details ID: 074258 Name: DENILIQUIN AIRPORT AWS Lat: -35.56 Lon: 144.95 Height: 94.0 m
Data from the previous 72 hours. | See also: Recent months at Deniliquin
Date/Time
EST
Temp
°C
App
Temp
°C
Dew
Point
°C
Rel
Hum
%
Delta-T
°C
Wind Press
QNH
hPa
Press
MSL
hPa
Rain since
9am
mm
Dir  Spd
km/h
Gust
km/h
Spd
kts
Gust
kts
28/10:00pm 12.8 11.3 10.5 86 1.2 NW 9 11 5 6 1024.0 1023.9 0.0
28/09:30pm 13.8 12.1 11.1 84 1.4 NW 11 13 6 7 1024.2 1024.1 0.0
28/09:00pm 13.9 12.6 11.2 84 1.4 WNW 9 11 5 6 1024.2 1024.1 0.0
28/08:30pm 13.8 12.5 11.1 84 1.4 WNW 9 9 5 5 1024.2 1024.1 0.0
28/08:00pm 14.0 13.0 10.4 79 1.9 WNW 6 7 3 4 1024.2 1024.1 0.0
28/07:30pm 15.0 14.1 11.2 78 2.0 WSW 7 9 4 5 1024.2 1024.1 0.0
28/07:00pm 15.3 14.0 11.1 76 2.2 W 9 11 5 6 1024.2 1024.1 0.0
28/06:30pm 15.3 13.5 10.9 75 2.3 WSW 11 13 6 7 1024.1 1024.0 0.0
28/06:00pm 15.7 12.7 10.5 71 2.7 WSW 17 20 9 11 1023.9 1023.8 0.0
28/05:30pm 16.1 12.3 9.8 66 3.3 WSW 20 24 11 13 1023.8 1023.7 0.0
28/05:00pm 16.7 12.7 8.9 60 4.0 WSW 20 24 11 13 1023.7 1023.6 0.0
28/04:30pm 17.0 12.8 8.2 56 4.5 SW 20 24 11 13 1023.6 1023.5 0.0
28/04:00pm 17.2 13.0 8.1 55 4.6 WSW 20 24 11 13 1023.6 1023.5 0.0
28/03:30pm 17.6 14.0 8.2 54 4.8 WSW 17 24 9 13 1023.6 1023.5 0.0
28/03:00pm 17.5 13.3 7.5 52 5.0 SW 19 24 10 13 1023.7 1023.6 0.0
28/02:30pm 17.1 13.2 6.9 51 5.1 SW 17 24 9 13 1023.9 1023.8 0.0
28/02:00pm 17.2 13.1 6.4 49 5.3 WSW 17 24 9 13 1023.9 1023.8 0.0
28/01:30pm 17.7 14.6 7.2 50 5.3 SSW 13 22 7 12 1024.1 1024.0 0.0
28/01:00pm 16.5 13.1 5.8 49 5.2 SW 13 24 7 13 1024.5 1024.4 0.0
28/12:30pm 16.0 11.9 6.2 52 4.8 SW 17 24 9 13 1025.0 1024.9 0.0
28/12:00pm 16.4 12.1 6.8 53 4.7 SW 19 24 10 13 1025.4 1025.3 0.0
28/11:30am 15.8 12.2 6.8 55 4.4 SW 15 20 8 11 1025.7 1025.6 0.0
28/11:00am 15.4 11.8 8.2 62 3.6 SW 17 24 9 13 1025.8 1025.7 0.0
28/10:30am 15.7 12.1 8.4 62 3.7 SW 17 20 9 11 1025.7 1025.6 0.0
28/10:00am 14.9 11.3 8.4 65 3.3 SW 17 22 9 12 1025.8 1025.7 0.0
28/09:30am 15.0 11.0 9.1 68 3.0 SW 20 28 11 15 1025.7 1025.6 0.0
28/09:00am 13.2 9.5 9.6 79 1.8 WSW 19 24 10 13 1025.6 1025.5 0.0
28/08:30am 12.0 8.7 9.6 85 1.2 WSW 17 20 9 11 1025.5 1025.4 0.0
28/08:00am 11.3 9.2 9.6 89 0.9 WSW 11 17 6 9 1025.3 1025.2 0.0
28/07:30am 10.9 8.3 9.2 89 0.9 WSW 13 17 7 9 1024.9 1024.8 0.0
28/07:00am 10.8 8.1 9.1 89 0.8 WSW 13 15 7 8 1024.7 1024.6 0.0
28/06:30am 10.6 7.8 8.7 88 0.9 W 13 15 7 8 1024.5 1024.4 0.0
28/06:00am 10.4 8.3 8.3 87 1.0 W 9 13 5 7 1024.4 1024.3 0.0
28/05:30am 10.3 8.1 7.9 85 1.2 W 9 9 5 5 1024.3 1024.2 0.0
28/05:00am 10.2 8.3 7.6 84 1.2 WNW 7 9 4 5 1024.1 1024.0 0.0
28/04:30am 10.3 8.4 7.7 84 1.3 W 7 9 4 5 1023.9 1023.8 0.0
28/04:00am 10.2 7.9 7.6 84 1.2 WNW 9 11 5 6 1024.0 1023.9 0.0
28/03:30am 10.1 8.4 7.5 84 1.2 WSW 6 9 3 5 1024.0 1023.9 0.0
28/03:00am 10.1 7.8 7.5 84 1.2 W 9 11 5 6 1024.1 1024.0 0.0
28/02:30am 10.1 8.2 7.5 84 1.2 WNW 7 9 4 5 1024.0 1023.9 0.0
28/02:00am 9.9 8.0 7.5 85 1.1 W 7 11 4 6 1024.2 1024.1 0.0
28/01:30am 9.8 7.1 7.2 84 1.2 WSW 11 13 6 7 1024.2 1024.1 0.0
28/01:00am 10.2 7.9 7.4 83 1.3 SW 9 11 5 6 1024.2 1024.1 0.0
28/12:30am 10.2 7.9 7.6 84 1.3 SW 9 11 5 6 1024.5 1024.4 0.0
28/12:00am 10.1 7.5 7.7 85 1.2 SW 11 13 6 7 1024.4 1024.3 0.0
 
Date/Time
EST
Temp
°C
App
Temp
°C
Dew
Point
°C
Rel
Hum
%
Delta-T
°C
Wind Press
QNH
hPa
Press
MSL
hPa
Rain since
9am
mm
Dir  Spd
km/h
Gust
km/h
Spd
kts
Gust
kts
27/11:30pm 9.8 7.5 7.6 86 1.1 SW 9 11 5 6 1024.5 1024.4 0.0
27/11:00pm 9.4 7.0 7.2 86 1.0 SW 9 11 5 6 1024.7 1024.6 0.0
27/10:30pm 9.3 6.9 7.1 86 1.0 WSW 9 11 5 6 1024.7 1024.6 0.0
27/10:00pm 8.9 6.1 6.9 87 0.9 SW 11 11 6 6 1024.6 1024.5 0.0
27/09:30pm 8.1 5.5 6.1 87 0.9 SW 9 11 5 6 1024.4 1024.3 0.0
27/09:00pm 8.4 4.5 5.5 82 1.3 SW 15 15 8 8 1024.3 1024.2 0.0
27/08:30pm 10.0 6.3 6.2 77 1.8 SW 15 19 8 10 1024.2 1024.1 0.0
27/08:00pm 9.4 4.8 5.8 78 1.6 SW 19 24 10 13 1024.2 1024.1 0.0
27/07:30pm 9.5 5.2 5.3 75 1.9 WSW 17 19 9 10 1023.9 1023.8 0.0
27/07:00pm 9.3 4.9 4.5 72 2.1 WSW 17 19 9 10 1023.6 1023.5 0.0
27/06:30pm 10.1 6.1 4.9 70 2.4 WSW 15 17 8 9 1023.0 1022.9 0.0
27/06:00pm 11.3 6.8 4.3 62 3.1 SW 17 20 9 11 1022.7 1022.6 0.0
27/05:30pm 12.8 7.2 3.7 54 4.1 SW 22 28 12 15 1022.5 1022.4 0.0
27/05:00pm 13.4 7.4 3.2 50 4.6 SW 24 30 13 16 1022.5 1022.4 0.0
27/04:30pm 14.5 8.8 3.0 46 5.2 SW 22 28 12 15 1022.5 1022.4 0.0
27/04:00pm 14.2 7.3 2.8 46 5.1 SSW 28 37 15 20 1022.5 1022.4 0.0
27/03:30pm 14.1 6.9 3.0 47 5.0 SW 30 39 16 21 1022.5 1022.4 0.0
27/03:00pm 14.1 8.1 3.3 48 4.9 SSW 24 33 13 18 1022.0 1021.9 0.0
27/02:30pm 14.8 8.3 2.7 44 5.4 SW 26 39 14 21 1021.7 1021.6 0.0
27/02:00pm 13.2 7.2 3.6 52 4.3 SSW 24 33 13 18 1022.0 1021.9 0.0
27/01:30pm 14.0 7.2 2.9 47 5.0 SSW 28 35 15 19 1022.3 1022.2 0.0
27/01:00pm 13.7 6.6 3.5 50 4.6 SSW 30 37 16 20 1022.8 1022.7 0.0
27/12:30pm 13.4 6.6 2.9 49 4.7 SSW 28 44 15 24 1023.1 1023.0 0.0
27/12:00pm 12.9 7.0 3.8 54 4.1 SSW 24 37 13 20 1023.3 1023.2 0.0
27/11:30am 13.1 6.9 4.3 55 4.0 SSW 26 35 14 19 1023.5 1023.4 0.0
27/11:00am 12.6 5.7 4.8 59 3.6 SSW 30 43 16 23 1023.8 1023.7 0.0
27/10:30am 12.0 5.5 4.5 60 3.4 SSW 28 37 15 20 1023.8 1023.7 0.0
27/10:00am 10.6 3.6 4.3 65 2.8 SW 30 33 16 18 1023.5 1023.4 0.0
27/09:30am 10.0 3.6 5.4 73 2.1 SW 28 33 15 18 1023.4 1023.3 0.0
27/09:00am 8.7 3.0 4.7 76 1.8 SW 24 32 13 17 1023.2 1023.1 0.0
27/08:30am 7.6 1.9 4.9 83 1.2 SW 24 35 13 19 1023.3 1023.2 0.0
27/08:00am 6.3 1.5 4.6 89 0.7 SW 19 26 10 14 1023.0 1022.9 0.0
27/07:30am 5.0 0.9 4.1 94 0.4 WSW 15 19 8 10 1022.5 1022.4 0.0
27/07:00am 3.9 -0.8 3.0 94 0.4 WSW 17 19 9 10 1022.0 1021.9 0.0
27/06:30am 3.8 -0.6 2.8 93 0.4 WSW 15 17 8 9 1021.7 1021.6 0.0
27/06:00am 4.2 -0.1 3.2 93 0.4 WSW 15 17 8 9 1021.5 1021.4 0.0
27/05:30am 4.5 0.2 3.3 92 0.5 WSW 15 17 8 9 1021.2 1021.1 0.0
27/05:00am 4.5 0.6 3.3 92 0.5 WSW 13 17 7 9 1021.0 1020.9 0.0
27/04:30am 5.0 0.7 3.5 90 0.6 WSW 15 17 8 9 1020.8 1020.7 0.0
27/04:00am 5.3 0.3 3.6 89 0.7 SW 19 20 10 11 1020.5 1020.4 0.0
27/03:30am 5.1 0.8 3.4 89 0.7 SW 15 19 8 10 1020.5 1020.4 0.0
27/03:00am 5.0 0.7 3.3 89 0.7 WSW 15 19 8 10 1020.6 1020.5 0.0
27/02:30am 4.8 0.8 2.8 87 0.8 WSW 13 17 7 9 1020.6 1020.5 0.0
27/02:00am 5.4 1.1 3.3 86 0.9 WSW 15 17 8 9 1020.5 1020.4 0.0
27/01:30am 6.0 1.4 3.5 84 1.1 SW 17 19 9 10 1020.4 1020.3 0.0
27/01:00am 6.4 1.8 3.6 82 1.2 SW 17 20 9 11 1020.1 1020.0 0.0
27/12:30am 6.7 2.1 3.5 80 1.4 SW 17 20 9 11 1020.1 1020.0 0.0
27/12:00am 7.3 2.1 3.5 77 1.6 SW 20 26 11 14 1019.9 1019.8 0.0
 
Date/Time
EST
Temp
°C
App
Temp
°C
Dew
Point
°C
Rel
Hum
%
Delta-T
°C
Wind Press
QNH
hPa
Press
MSL
hPa
Rain since
9am
mm
Dir  Spd
km/h
Gust
km/h
Spd
kts
Gust
kts
26/11:30pm 7.6 2.0 3.6 76 1.7 SW 22 28 12 15 1019.7 1019.6 0.0
26/11:00pm 7.7 2.1 3.4 74 1.8 SW 22 26 12 14 1019.7 1019.6 0.0
26/10:30pm 8.1 2.4 3.0 70 2.2 SW 22 28 12 15 1019.9 1019.8 0.0
26/10:00pm 8.5 2.8 2.9 68 2.4 SW 22 28 12 15 1019.7 1019.6 0.0
26/09:30pm 8.7 2.6 2.7 66 2.5 SW 24 30 13 16 1019.4 1019.3 0.0
26/09:00pm 8.6 3.0 3.2 69 2.3 SW 22 28 12 15 1019.2 1019.1 0.0
26/08:30pm 8.5 2.8 2.9 68 2.4 SW 22 26 12 14 1018.9 1018.8 0.0
26/08:00pm 9.1 3.0 2.9 65 2.6 SW 24 32 13 17 1018.7 1018.5 0.0
26/07:30pm 8.7 3.5 2.5 65 2.6 SW 19 24 10 13 1018.4 1018.2 0.0
26/07:00pm 8.7 4.0 3.1 68 2.4 SW 17 19 9 10 1017.9 1017.7 0.0
26/06:30pm 9.5 4.3 2.6 62 2.9 SW 19 22 10 12 1017.2 1017.0 0.0
26/06:00pm 10.4 4.6 2.3 57 3.5 SW 22 30 12 16 1016.7 1016.5 0.0
26/05:30pm 11.8 3.9 1.2 48 4.5 SW 32 41 17 22 1016.0 1015.8 0.0
26/05:00pm 12.7 2.2 1.4 46 4.8 SSW 46 59 25 32 1015.3 1015.2 0.0
26/04:30pm 13.4 2.6 1.7 45 5.1 SW 48 61 26 33 1014.6 1014.5 0.0
26/04:00pm 14.6 6.7 2.5 44 5.4 SSW 33 54 18 29 1013.9 1013.8 0.0
26/03:57pm 14.7 7.5 3.2 46 5.2 SSW 30 54 16 29 1013.9 1013.8 0.0
26/03:30pm 14.6 7.1 3.7 48 5.0 SSW 32 41 17 22 1013.7 1013.6 0.0
26/03:00pm 14.6 7.9 3.4 47 5.1 SSW 28 39 15 21 1013.2 1013.1 0.0
26/02:30pm 13.5 4.9 2.7 48 4.8 SW 37 50 20 27 1012.9 1012.8 0.0
26/02:12pm 15.6 5.5 3.7 45 5.5 SW 46 65 25 35 1012.6 1012.5 0.0
26/02:00pm 15.4 5.9 3.9 46 5.3 SW 43 54 23 29 1012.3 1012.2 0.0
26/01:30pm 13.2 5.7 6.1 62 3.4 SSW 35 63 19 34 1012.1 1012.0 0.0
26/01:18pm 12.7 5.0 7.0 68 2.8 SSW 37 56 20 30 1012.0 1011.9 0.0
26/01:00pm 14.3 5.5 5.4 55 4.2 SW 41 52 22 28 1011.7 1011.6 0.0
26/12:49pm 14.3 5.7 4.6 52 4.5 SW 39 57 21 31 1011.7 1011.6 0.0
26/12:30pm 14.2 4.9 5.0 54 4.3 SW 43 57 23 31 1011.8 1011.7 0.0
26/12:24pm 14.0 5.4 4.9 54 4.3 SW 39 57 21 31 1011.7 1011.6 0.0
26/12:00pm 14.1 6.3 6.5 60 3.7 SW 37 50 20 27 1011.6 1011.5 0.0
26/11:30am 13.6 5.8 6.5 62 3.4 SSW 37 50 20 27 1011.4 1011.3 0.0
26/11:00am 13.5 5.6 7.7 68 2.9 SSW 39 48 21 26 1011.0 1010.9 0.0
26/10:30am 12.4 5.1 7.1 70 2.6 SW 35 48 19 26 1010.8 1010.7 0.0
26/10:00am 11.9 4.6 7.4 74 2.2 SW 35 52 19 28 1010.4 1010.3 0.0
26/09:30am 11.2 4.7 8.1 81 1.5 SW 32 43 17 23 1010.1 1010.0 0.0
26/09:00am 10.9 4.4 8.0 82 1.4 WSW 32 44 17 24 1009.8 1009.7 3.2
26/08:30am 11.4 5.1 9.1 86 1.2 WSW 32 41 17 22 1009.1 1008.9 3.2
26/08:00am 10.4 5.2 8.8 90 0.8 WSW 26 32 14 17 1008.7 1008.5 3.2
26/07:30am 10.4 5.7 9.3 93 0.6 WSW 24 35 13 19 1008.3 1008.1 3.2
26/07:00am 10.2 6.7 8.8 91 0.7 W 17 26 9 14 1008.1 1007.9 3.0
26/06:30am 10.1 7.8 9.0 93 0.5 WNW 11 13 6 7 1007.9 1007.7 3.0
26/06:00am 10.2 6.1 8.5 89 0.8 WSW 20 32 11 17 1007.6 1007.4 2.2
26/05:30am 10.7 3.9 7.8 82 1.4 W 33 67 18 36 1007.4 1007.2 1.8
26/05:28am 11.8 6.3 9.0 83 1.4 WNW 28 67 15 36 1007.2 1007.0 1.6
26/05:00am 13.0 10.0 11.9 93 0.6 NW 19 26 10 14 1006.7 1006.5 1.2
26/04:30am 13.0 10.3 11.7 92 0.7 NW 17 24 9 13 1006.5 1006.3 1.2
26/04:00am 13.1 9.7 11.3 89 1.0 NW 20 24 11 13 1006.7 1006.5 1.0
26/03:30am 13.3 10.5 11.5 89 1.0 NW 17 24 9 13 1007.0 1006.8 0.4
26/03:00am 13.7 11.4 11.6 87 1.1 NW 15 19 8 10 1007.2 1007.0 0.0
26/02:30am 13.4 11.8 11.6 89 1.0 NW 11 13 6 7 1007.6 1007.4 0.0
26/02:00am 13.3 11.5 12.0 92 0.7 NW 13 17 7 9 1007.7 1007.5 0.0
26/01:30am 13.2 11.7 11.9 92 0.7 WNW 11 13 6 7 1007.9 1007.7 0.0
26/01:00am 13.9 11.2 11.8 87 1.1 W 17 22 9 12 1008.1 1007.9 0.0
26/12:30am 13.9 12.8 13.0 94 0.5 WNW 11 13 6 7 1008.2 1008.0 0.0
26/12:00am 14.3 12.9 13.3 94 0.6 WNW 13 19 7 10 1008.2 1008.0 0.0
 
Date/Time
EST
Temp
°C
App
Temp
°C
Dew
Point
°C
Rel
Hum
%
Delta-T
°C
Wind Press
QNH
hPa
Press
MSL
hPa
Rain since
9am
mm
Dir  Spd
km/h
Gust
km/h
Spd
kts
Gust
kts
25/11:30pm 14.3 13.2 13.2 93 0.6 NW 11 13 6 7 1008.3 1008.1 0.0
25/11:00pm 14.9 10.4 12.6 86 1.3 W 28 39 15 21 1008.8 1008.6 0.0
25/10:45pm 15.9 12.0 12.1 78 2.1 NW 24 41 13 22 1008.7 1008.5 0.0
25/10:30pm 15.0 13.2 12.1 83 1.6 NNW 13 15 7 8 1008.4 1008.2 0.0

Other Formats:

Comma delimited format used in spreadsheet applications
http://www.bom.gov.au/fwo/IDN60801/IDN60801.95869.axf

JavaScript Object Notation format (JSON) in row-major order
http://www.bom.gov.au/fwo/IDN60801/IDN60801.95869.json